Time;durP1;ratioP1;P1;durP2;ratioP2;P2;SDS_P1;SDS_P2;PMS_P1;PMS_P2;Temp;Humidity;BMP_temperature;BMP_pressure;BME280_temperature;BME280_humidity;BME280_pressure;Samples;Min_cycle;Max_cycle;Signal;HPM_P1;HPM_P2
2023/09/25 00:01:31;;;;;;;13.77;9.25;;;;;;;17.19;100.00;100066.88;5025899;28;20036;-71
2023/09/25 00:03:56;;;;;;;12.82;10.30;;;;;;;17.18;100.00;100066.00;5038115;28;20056;-74
2023/09/25 00:06:21;;;;;;;12.63;9.13;;;;;;;17.14;100.00;100070.00;5047180;28;20036;-74
2023/09/25 00:08:46;;;;;;;12.73;9.15;;;;;;;17.14;100.00;100102.34;5050021;28;20045;-72
2023/09/25 00:11:11;;;;;;;15.13;9.57;;;;;;;17.11;100.00;100107.16;5019999;28;20040;-79
2023/09/25 00:13:37;;;;;;;19.17;8.88;;;;;;;17.07;100.00;100095.78;5037291;28;20044;-75
2023/09/25 00:16:03;;;;;;;9.75;7.85;;;;;;;17.04;100.00;100102.28;5019220;28;20040;-74
2023/09/25 00:18:31;;;;;;;9.15;7.93;;;;;;;16.98;100.00;100075.94;5019417;28;20048;-73
2023/09/25 00:20:56;;;;;;;9.35;7.60;;;;;;;16.99;100.00;100076.78;5036182;28;20055;-73
2023/09/25 00:23:22;;;;;;;9.50;7.40;;;;;;;16.94;100.00;100079.88;5019647;28;20048;-73
2023/09/25 00:25:47;;;;;;;8.93;6.75;;;;;;;16.89;100.00;100097.47;5019964;28;20044;-76
2023/09/25 00:28:12;;;;;;;10.75;7.03;;;;;;;16.89;100.00;100086.69;5037405;28;20044;-70
2023/09/25 00:30:39;;;;;;;9.25;7.00;;;;;;;16.88;100.00;100106.53;5037353;28;20044;-74
2023/09/25 00:33:06;;;;;;;9.20;7.03;;;;;;;16.86;100.00;100095.91;5037428;28;20045;-71
2023/09/25 00:35:31;;;;;;;10.55;7.10;;;;;;;16.88;100.00;100106.53;5019103;28;20051;-72
2023/09/25 00:37:57;;;;;;;9.00;6.57;;;;;;;16.87;100.00;100084.13;5019136;28;20044;-69
2023/09/25 00:40:24;;;;;;;9.15;6.82;;;;;;;16.88;100.00;100099.31;5002876;28;20040;-73
2023/09/25 00:42:51;;;;;;;8.55;6.28;;;;;;;16.87;100.00;100100.28;5034897;28;20063;-70
2023/09/25 00:45:17;;;;;;;7.60;6.18;;;;;;;16.86;100.00;100103.13;5018130;28;20419;-70
2023/09/25 00:47:43;;;;;;;9.95;6.20;;;;;;;16.86;100.00;100103.97;4998994;28;20407;-71
2023/09/25 00:50:10;;;;;;;9.00;6.47;;;;;;;16.87;100.00;100104.84;5032770;28;20478;-73
2023/09/25 00:52:39;;;;;;;10.38;6.40;;;;;;;16.87;100.00;100100.28;5018356;28;20044;-73
2023/09/25 00:55:05;;;;;;;9.52;6.30;;;;;;;16.89;100.00;100102.84;5018733;28;20059;-76
2023/09/25 00:57:34;;;;;;;9.68;6.10;;;;;;;16.88;100.00;100134.31;5003523;28;20061;-75
2023/09/25 01:00:01;;;;;;;7.80;5.95;;;;;;;16.92;100.00;100113.34;5026942;28;20037;-74
2023/09/25 01:02:26;;;;;;;8.35;5.53;;;;;;;16.93;100.00;100109.69;5017526;28;20822;-72
2023/09/25 01:04:51;;;;;;;7.68;5.50;;;;;;;16.93;100.00;100113.19;5015520;28;20041;-70
2023/09/25 01:07:17;;;;;;;7.00;5.45;;;;;;;16.93;100.00;100132.03;5026249;28;20406;-74
2023/09/25 01:09:42;;;;;;;7.75;5.40;;;;;;;16.94;100.00;100112.22;5002303;28;20059;-71
2023/09/25 01:12:07;;;;;;;8.70;5.00;;;;;;;16.97;100.00;100121.84;5036365;28;20106;-69
2023/09/25 01:14:32;;;;;;;13.00;5.90;;;;;;;16.98;100.00;100123.56;5001378;28;20044;-74
2023/09/25 01:16:58;;;;;;;7.18;4.65;;;;;;;16.97;100.00;100128.09;5010152;28;20059;-72
2023/09/25 01:19:24;;;;;;;6.70;4.45;;;;;;;16.96;100.00;100126.41;5036787;28;20483;-75
2023/09/25 01:21:49;;;;;;;7.25;5.50;;;;;;;16.97;100.00;100128.09;5031456;28;20418;-70
2023/09/25 01:24:14;;;;;;;8.05;6.07;;;;;;;17.00;100.00;100137.75;5018676;28;20053;-69
2023/09/25 01:26:40;;;;;;;8.20;4.70;;;;;;;16.99;100.00;100130.66;5035380;28;20044;-71
2023/09/25 01:29:05;;;;;;;8.13;4.72;;;;;;;17.02;100.00;100147.41;5035862;28;20499;-68
2023/09/25 01:31:30;;;;;;;5.78;4.75;;;;;;;17.01;100.00;100145.69;5033859;28;20059;-69
2023/09/25 01:33:56;;;;;;;5.63;4.78;;;;;;;17.02;100.00;100150.09;5015224;28;20074;-69
2023/09/25 01:36:21;;;;;;;6.55;4.63;;;;;;;17.02;100.00;100151.94;5050673;28;20040;-71
2023/09/25 01:38:49;;;;;;;8.13;4.53;;;;;;;17.02;100.00;100160.88;5035169;28;20043;-71
2023/09/25 01:41:15;;;;;;;5.15;4.35;;;;;;;17.04;100.00;100163.44;5005261;28;20152;-71
2023/09/25 01:43:41;;;;;;;5.93;4.53;;;;;;;17.02;100.00;100146.56;5013733;28;20045;-70
2023/09/25 01:46:07;;;;;;;4.63;4.00;;;;;;;17.01;100.00;100171.78;5030586;28;20067;-71
2023/09/25 01:48:32;;;;;;;3.38;3.08;;;;;;;16.99;100.00;100153.06;5020294;28;20052;-69
2023/09/25 01:50:58;;;;;;;7.18;3.58;;;;;;;16.96;100.00;100153.31;5028274;28;20044;-72
2023/09/25 01:53:23;;;;;;;3.50;2.95;;;;;;;16.93;100.00;100163.53;5002276;28;20048;-73
2023/09/25 01:55:49;;;;;;;3.47;3.17;;;;;;;16.89;100.00;100184.50;5055459;28;20056;-73
2023/09/25 01:58:14;;;;;;;3.10;2.83;;;;;;;16.87;100.00;100156.84;5020726;28;20040;-72
2023/09/25 02:00:39;;;;;;;3.85;3.45;;;;;;;16.86;100.00;100182.06;5037215;28;20044;-71
2023/09/25 02:03:05;;;;;;;6.35;2.88;;;;;;;16.86;100.00;100168.59;5055416;28;20066;-72
2023/09/25 02:05:30;;;;;;;5.78;3.80;;;;;;;16.86;100.00;100174.00;5020722;28;20047;-72
2023/09/25 02:07:56;;;;;;;4.40;3.85;;;;;;;16.87;100.00;100178.41;5022566;28;20051;-74
2023/09/25 02:10:21;;;;;;;5.72;4.00;;;;;;;16.86;100.00;100176.69;5050220;28;20039;-71
2023/09/25 02:12:47;;;;;;;5.15;4.18;;;;;;;16.86;100.00;100174.00;5042624;28;20039;-71
2023/09/25 02:15:12;;;;;;;4.47;3.70;;;;;;;16.82;100.00;100177.09;5032855;28;20458;-72
2023/09/25 02:17:37;;;;;;;3.65;3.28;;;;;;;16.81;100.00;100181.66;5000445;28;20045;-71
2023/09/25 02:20:38;;;;;;;5.07;2.58;;;;;;;16.79;100.00;100183.63;5017045;28;20059;-72
2023/09/25 02:22:56;;;;;;;4.07;3.22;;;;;;;16.79;100.00;100210.53;5013756;28;20071;-70
2023/09/25 02:25:22;;;;;;;4.28;3.13;;;;;;;16.78;100.00;100214.22;5019277;28;20061;-76
2023/09/25 02:27:48;;;;;;;5.20;3.45;;;;;;;16.78;99.71;100219.59;5004193;28;20048;-78
2023/09/25 02:30:13;;;;;;;6.20;3.45;;;;;;;16.77;99.91;100222.44;5036825;28;20055;-78
2023/09/25 02:32:41;;;;;;;3.45;3.13;;;;;;;16.77;99.83;100209.81;5035189;28;20047;-74
2023/09/25 02:35:07;;;;;;;5.47;3.75;;;;;;;16.78;99.41;100221.44;5016799;28;20048;-71
2023/09/25 02:37:33;;;;;;;4.60;3.15;;;;;;;16.75;99.07;100225.25;5034886;28;20040;-72
2023/09/25 02:39:58;;;;;;;4.43;3.40;;;;;;;16.72;98.19;100228.22;5034439;28;20036;-72
2023/09/25 02:42:23;;;;;;;4.90;4.05;;;;;;;16.72;98.05;100230.91;5016844;28;20041;-72
2023/09/25 02:44:49;;;;;;;4.53;3.67;;;;;;;16.68;97.98;100245.63;4996631;28;20063;-72
2023/09/25 02:47:14;;;;;;;5.22;3.72;;;;;;;16.66;97.31;100231.44;5046694;28;20403;-72
2023/09/25 02:49:40;;;;;;;5.60;3.95;;;;;;;16.65;97.16;100240.50;5054935;28;20542;-69
2023/09/25 02:52:05;;;;;;;6.45;4.25;;;;;;;16.62;96.70;100230.00;5036529;28;20044;-68
2023/09/25 02:54:31;;;;;;;5.30;4.13;;;;;;;16.60;96.37;100256.16;5019238;28;20048;-69
2023/09/25 02:56:56;;;;;;;5.43;4.38;;;;;;;16.58;95.67;100252.78;5030668;28;20052;-71
2023/09/25 02:59:21;;;;;;;6.22;4.28;;;;;;;16.52;94.96;100239.84;5044024;28;20068;-72
2023/09/25 03:01:46;;;;;;;6.07;4.32;;;;;;;16.48;94.28;100244.63;5033436;28;20044;-73
2023/09/25 03:04:11;;;;;;;5.03;4.05;;;;;;;16.43;94.33;100251.41;5024210;28;20059;-75
2023/09/25 03:06:37;;;;;;;9.43;5.40;;;;;;;16.37;93.94;100262.69;5037242;28;20513;-75
2023/09/25 03:09:02;;;;;;;6.50;4.72;;;;;;;16.33;93.91;100252.19;5000052;28;20510;-76
2023/09/25 03:11:30;;;;;;;6.70;5.25;;;;;;;16.34;94.03;100264.66;5032319;28;20414;-71
2023/09/25 03:13:55;;;;;;;6.68;4.80;;;;;;;16.37;94.37;100289.59;5051195;28;20055;-71
2023/09/25 03:16:20;;;;;;;7.47;5.82;;;;;;;16.36;94.16;100269.06;5036645;28;20051;-71
2023/09/25 03:18:45;;;;;;;7.50;5.85;;;;;;;16.37;94.32;100294.97;5054688;28;20050;-70
2023/09/25 03:21:12;;;;;;;7.70;6.03;;;;;;;16.33;93.97;100289.88;5017606;28;20043;-74
2023/09/25 03:23:39;;;;;;;6.85;5.03;;;;;;;16.37;94.02;100273.44;5032241;28;20060;-73
2023/09/25 03:26:12;;;;;;;8.13;5.93;;;;;;;16.43;94.24;100289.94;5016830;28;20048;-74
2023/09/25 03:28:37;;;;;;;10.75;6.00;;;;;;;16.42;94.17;100282.00;5038450;28;20052;-72
2023/09/25 03:31:03;;;;;;;8.82;5.88;;;;;;;16.41;94.19;100301.81;5015926;28;20063;-74
2023/09/25 03:33:28;;;;;;;8.45;6.95;;;;;;;16.42;93.92;100303.53;5049945;28;20043;-73
2023/09/25 03:35:53;;;;;;;8.68;5.88;;;;;;;16.43;94.08;100300.69;5018051;28;20051;-73
2023/09/25 03:38:19;;;;;;;12.00;6.30;;;;;;;16.43;94.12;100302.53;5034201;28;20052;-74
2023/09/25 03:40:44;;;;;;;8.68;6.50;;;;;;;16.42;93.90;100314.28;5036707;28;20039;-74
2023/09/25 03:43:10;;;;;;;8.68;6.38;;;;;;;16.40;93.50;100310.88;5036324;28;20040;-74
2023/09/25 03:45:35;;;;;;;10.57;6.75;;;;;;;16.40;93.42;100311.72;5054777;28;20066;-75
2023/09/25 03:48:00;;;;;;;11.43;7.05;;;;;;;16.39;92.48;100318.09;5052898;28;20055;-75
2023/09/25 03:50:25;;;;;;;7.45;6.38;;;;;;;16.38;91.74;100324.44;5019912;28;20063;-74
2023/09/25 03:52:50;;;;;;;9.32;7.20;;;;;;;16.36;90.96;100347.09;5054265;28;20055;-75
2023/09/25 03:55:16;;;;;;;10.10;7.03;;;;;;;16.33;90.31;100330.22;5054566;28;20487;-74
2023/09/25 03:57:41;;;;;;;7.97;6.55;;;;;;;16.34;89.69;100333.78;5036283;28;20071;-76
2023/09/25 04:00:07;;;;;;;8.75;6.40;;;;;;;16.34;89.41;100361.53;5052689;28;20673;-75
2023/09/25 04:02:37;;;;;;;6.70;5.38;;;;;;;16.37;88.75;100354.16;5051863;28;20554;-75
2023/09/25 04:05:03;;;;;;;7.25;5.88;;;;;;;16.38;88.26;100356.72;5054662;28;20408;-74
2023/09/25 04:07:29;;;;;;;7.82;5.80;;;;;;;16.38;88.00;100335.22;5054322;28;20051;-75
2023/09/25 04:09:54;;;;;;;8.80;5.80;;;;;;;16.44;87.57;100340.09;5026027;28;20049;-73
2023/09/25 04:12:19;;;;;;;8.68;6.22;;;;;;;16.47;87.79;100366.75;5019153;28;20036;-77
2023/09/25 04:14:45;;;;;;;8.38;6.47;;;;;;;16.51;87.76;100353.88;5002024;28;20407;-76
2023/09/25 04:17:10;;;;;;;7.60;5.97;;;;;;;16.54;87.53;100348.22;5019300;28;20048;-75
2023/09/25 04:19:35;;;;;;;9.25;6.93;;;;;;;16.54;87.41;100353.63;5036377;28;20051;-76
2023/09/25 04:22:06;;;;;;;8.95;6.47;;;;;;;16.56;87.49;100375.88;5058987;28;20044;-75
2023/09/25 04:24:32;;;;;;;9.38;6.05;;;;;;;16.60;87.63;100356.63;5058615;28;20052;-76
2023/09/25 04:26:57;;;;;;;7.80;5.63;;;;;;;16.65;87.39;100361.66;5023984;28;20055;-78
2023/09/25 04:29:22;;;;;;;6.95;5.00;;;;;;;16.65;87.10;100367.03;5006123;28;20048;-74
2023/09/25 04:31:47;;;;;;;8.98;5.97;;;;;;;16.65;86.75;100362.53;5039039;28;20518;-74
2023/09/25 04:34:13;;;;;;;8.00;5.65;;;;;;;16.66;86.01;100375.00;5057773;28;20040;-73
2023/09/25 04:36:38;;;;;;;7.60;5.35;;;;;;;16.68;85.84;100396.41;5057542;28;20059;-73
2023/09/25 04:39:04;;;;;;;8.73;5.38;;;;;;;16.68;85.16;100364.09;5039107;28;20043;-75
2023/09/25 04:41:29;;;;;;;9.80;5.85;;;;;;;16.73;85.20;100366.38;5022187;28;20063;-75
2023/09/25 04:43:54;;;;;;;7.90;5.35;;;;;;;16.82;85.25;100371.81;5042819;28;20067;-75
2023/09/25 04:46:20;;;;;;;7.55;6.15;;;;;;;16.87;84.88;100371.44;5037091;28;20418;-75
2023/09/25 04:48:45;;;;;;;8.40;5.68;;;;;;;16.97;84.07;100367.81;5018954;28;20036;-76
2023/09/25 04:51:10;;;;;;;8.20;6.05;;;;;;;17.03;83.20;100359.22;5018960;28;20049;-76
2023/09/25 04:53:36;;;;;;;6.25;5.22;;;;;;;17.10;82.59;100364.91;5036728;28;20032;-73
2023/09/25 04:56:01;;;;;;;6.97;6.10;;;;;;;17.13;81.88;100396.16;5036620;28;20051;-73
2023/09/25 04:58:26;;;;;;;9.70;6.03;;;;;;;17.15;81.29;100378.00;5036756;28;20483;-76
2023/09/25 05:00:53;;;;;;;7.13;5.85;;;;;;;17.11;80.33;100379.25;5018261;28;20048;-75
2023/09/25 05:03:18;;;;;;;9.25;5.50;;;;;;;17.07;80.53;100381.34;5044635;28;20044;-76
2023/09/25 05:05:44;;;;;;;8.52;6.03;;;;;;;17.03;80.22;100394.25;5022014;28;20075;-76
2023/09/25 05:08:09;;;;;;;8.27;5.75;;;;;;;17.03;80.38;100391.56;5057713;28;20040;-76
2023/09/25 05:10:35;;;;;;;7.60;5.15;;;;;;;17.12;80.68;100384.50;5057200;28;20414;-77
2023/09/25 05:13:00;;;;;;;6.88;5.43;;;;;;;17.30;79.93;100404.44;5057727;28;20055;-77
2023/09/25 05:15:26;;;;;;;7.38;5.43;;;;;;;17.38;79.19;100396.53;5055233;28;20048;-76
2023/09/25 05:17:51;;;;;;;6.85;5.43;;;;;;;17.43;78.13;100399.69;5039818;28;20134;-77
2023/09/25 05:20:22;;;;;;;7.32;5.22;;;;;;;17.55;77.91;100403.16;5026223;28;20624;-76
2023/09/25 05:22:50;;;;;;;6.45;5.63;;;;;;;17.65;77.32;100398.69;5020768;28;20041;-76
2023/09/25 05:25:17;;;;;;;9.27;5.90;;;;;;;17.88;76.82;100403.88;5013269;28;20051;-76
2023/09/25 05:27:45;;;;;;;7.47;5.38;;;;;;;18.27;76.17;100411.06;5020684;28;20024;-76
2023/09/25 05:30:12;;;;;;;6.60;5.28;;;;;;;18.77;74.08;100408.25;5019252;28;20425;-75
2023/09/25 05:32:40;;;;;;;6.07;5.05;;;;;;;19.38;71.47;100402.44;5069227;28;20075;-76
2023/09/25 05:35:07;;;;;;;7.88;5.32;;;;;;;20.07;68.65;100399.31;5068478;28;20047;-75
2023/09/25 05:37:35;;;;;;;7.13;5.50;;;;;;;20.58;66.11;100399.53;5050011;28;20510;-75
2023/09/25 05:40:01;;;;;;;6.25;5.32;;;;;;;20.71;63.74;100399.13;5019298;28;20052;-75
2023/09/25 05:42:31;;;;;;;8.20;5.35;;;;;;;20.42;62.83;100410.22;5047025;28;20044;-75
2023/09/25 05:44:57;;;;;;;6.68;5.22;;;;;;;19.96;63.60;100402.22;5040404;28;20518;-76
2023/09/25 05:47:23;;;;;;;6.07;5.45;;;;;;;19.54;65.04;100408.09;5039569;28;20048;-76
2023/09/25 05:49:48;;;;;;;8.25;5.25;;;;;;;19.33;66.10;100383.09;5056853;28;20054;-75
2023/09/25 05:52:14;;;;;;;7.00;5.28;;;;;;;19.14;66.82;100400.25;5056603;28;20403;-76
2023/09/25 05:54:39;;;;;;;7.20;5.35;;;;;;;18.98;67.07;100421.59;5056143;28;20067;-73
2023/09/25 05:57:05;;;;;;;7.93;4.88;;;;;;;18.90;67.52;100408.81;5020727;28;20048;-74
2023/09/25 05:59:31;;;;;;;5.80;5.20;;;;;;;19.07;68.02;100415.34;5055726;28;20437;-73
2023/09/25 06:01:57;;;;;;;12.02;6.25;;;;;;;19.30;67.21;100416.69;5020536;28;20052;-74
2023/09/25 06:04:22;;;;;;;6.32;5.65;;;;;;;20.01;66.66;100405.31;5036200;28;20070;-74
2023/09/25 06:06:47;;;;;;;9.55;5.38;;;;;;;20.65;63.98;100411.41;5035438;28;20045;-75
2023/09/25 06:09:15;;;;;;;8.73;5.28;;;;;;;20.93;61.39;100408.63;5017801;28;20064;-74
2023/09/25 06:11:42;;;;;;;7.88;4.35;;;;;;;20.77;60.12;100420.16;5035409;28;20051;-74
2023/09/25 06:14:09;;;;;;;5.85;4.40;;;;;;;20.44;60.91;100429.84;5035318;28;20040;-73
2023/09/25 06:16:36;;;;;;;6.35;4.28;;;;;;;20.16;61.65;100420.03;5035238;28;20040;-74
2023/09/25 06:19:01;;;;;;;8.52;4.50;;;;;;;20.17;62.00;100443.41;5033158;28;20056;-74
2023/09/25 06:21:26;;;;;;;4.93;4.15;;;;;;;20.13;61.88;100431.16;5034824;28;20040;-73
2023/09/25 06:23:52;;;;;;;7.70;5.32;;;;;;;20.34;62.10;100439.00;5033018;28;20066;-74
2023/09/25 06:26:17;;;;;;;6.60;4.40;;;;;;;20.72;61.33;100440.63;5040083;28;20040;-73
2023/09/25 06:28:43;;;;;;;8.15;4.50;;;;;;;21.40;59.45;100443.56;5020664;28;20070;-75
2023/09/25 06:31:08;;;;;;;5.93;4.55;;;;;;;21.55;57.64;100437.41;5053256;28;20043;-75
2023/09/25 06:33:33;;;;;;;5.25;4.13;;;;;;;21.70;56.90;100435.78;5024415;28;20415;-76
2023/09/25 06:35:59;;;;;;;6.50;4.47;;;;;;;21.46;56.70;100437.50;5018804;28;20047;-75
2023/09/25 06:38:24;;;;;;;12.85;5.22;;;;;;;21.02;57.04;100451.03;5018815;28;20055;-75
2023/09/25 06:40:49;;;;;;;8.35;4.82;;;;;;;20.62;58.34;100438.00;5036236;28;20040;-76
2023/09/25 06:43:14;;;;;;;6.15;4.80;;;;;;;20.24;59.55;100449.91;4997687;28;20797;-76
2023/09/25 06:45:40;;;;;;;7.88;4.60;;;;;;;19.89;60.33;100456.94;4997730;28;20048;-75
2023/09/25 06:48:05;;;;;;;8.40;4.88;;;;;;;19.55;60.80;100450.38;4997941;28;20053;-75
2023/09/25 06:50:30;;;;;;;9.23;4.60;;;;;;;19.28;61.70;100478.19;5026459;28;20392;-75
2023/09/25 06:52:56;;;;;;;7.32;4.78;;;;;;;19.14;62.34;100486.72;5033571;28;20059;-76
2023/09/25 06:55:21;;;;;;;15.18;5.40;;;;;;;19.06;62.90;100462.28;5034709;28;20044;-76
2023/09/25 06:57:47;;;;;;;13.40;5.35;;;;;;;18.95;63.28;100466.00;5000908;28;20052;-74
2023/09/25 07:00:13;;;;;;;5.22;4.65;;;;;;;18.83;63.39;100467.13;5000150;28;20045;-76
2023/09/25 07:02:39;;;;;;;19.05;5.78;;;;;;;18.79;63.69;100492.72;5022226;28;20052;-76
2023/09/25 07:05:04;;;;;;;6.90;4.95;;;;;;;18.79;63.57;100466.56;5018053;28;20044;-75
2023/09/25 07:07:31;;;;;;;9.85;5.20;;;;;;;18.90;63.38;100484.47;5032941;28;20057;-75
2023/09/25 07:09:57;;;;;;;7.18;5.13;;;;;;;19.03;63.16;100486.88;5016990;28;20044;-74
2023/09/25 07:12:22;;;;;;;7.43;5.13;;;;;;;19.14;62.15;100476.78;5034772;28;20048;-76
2023/09/25 07:14:56;;;;;;;6.38;4.95;;;;;;;19.22;61.24;100489.56;5035053;28;20036;-76
2023/09/25 07:17:22;;;;;;;6.05;4.45;;;;;;;19.34;60.28;100457.81;5001750;28;20415;-77
2023/09/25 07:19:51;;;;;;;7.53;4.72;;;;;;;19.47;59.45;100497.06;5018261;28;20040;-77
2023/09/25 07:22:17;;;;;;;8.32;4.32;;;;;;;19.52;58.76;100491.25;5034591;28;20056;-76
2023/09/25 07:24:42;;;;;;;5.68;4.60;;;;;;;19.53;58.80;100487.53;5034346;28;20041;-76
2023/09/25 07:27:07;;;;;;;6.63;4.80;;;;;;;19.48;59.22;100496.09;4999980;28;20471;-73
2023/09/25 07:29:33;;;;;;;11.40;4.47;;;;;;;19.42;59.09;100496.63;5016476;28;20032;-74
2023/09/25 07:31:58;;;;;;;7.70;4.75;;;;;;;19.41;59.24;100499.50;5034402;28;20049;-74
2023/09/25 07:34:23;;;;;;;4.97;3.95;;;;;;;19.36;58.95;100502.63;5016329;28;20041;-75
2023/09/25 07:36:49;;;;;;;8.73;4.20;;;;;;;19.35;59.37;100509.03;5032628;28;20067;-74
2023/09/25 07:39:18;;;;;;;8.52;4.75;;;;;;;19.32;59.19;100511.16;5034295;28;20704;-73
2023/09/25 07:41:44;;;;;;;5.40;4.05;;;;;;;19.28;59.63;100509.78;5016269;28;20411;-75
2023/09/25 07:44:12;;;;;;;6.65;4.63;;;;;;;19.25;60.08;100515.47;5034379;28;20039;-75
2023/09/25 07:46:37;;;;;;;5.85;4.40;;;;;;;19.18;60.06;100518.75;4985080;28;20052;-75
2023/09/25 07:49:02;;;;;;;6.65;4.25;;;;;;;19.09;59.83;100516.03;5020229;28;20873;-75
2023/09/25 07:51:29;;;;;;;6.07;4.50;;;;;;;19.00;59.80;100514.19;5020382;28;20063;-75
2023/09/25 07:53:58;;;;;;;10.88;4.60;;;;;;;18.90;59.94;100526.84;5030474;28;20814;-75
2023/09/25 07:56:24;;;;;;;5.95;4.80;;;;;;;18.86;60.61;100515.47;5037074;28;20056;-75
2023/09/25 07:58:49;;;;;;;6.57;5.40;;;;;;;18.77;60.76;100519.00;5038361;28;20039;-75
2023/09/25 08:01:14;;;;;;;6.88;4.68;;;;;;;18.68;61.64;100520.72;5036377;28;20056;-75
2023/09/25 08:03:39;;;;;;;7.38;4.57;;;;;;;18.64;61.90;100523.81;5002902;28;20056;-76
2023/09/25 08:06:05;;;;;;;8.65;4.93;;;;;;;18.61;61.92;100526.81;5036435;28;20055;-76
2023/09/25 08:08:35;;;;;;;5.88;4.43;;;;;;;18.57;62.36;100531.59;5038092;28;20048;-75
2023/09/25 08:11:00;;;;;;;6.55;4.82;;;;;;;18.60;62.13;100525.13;5021168;28;20048;-76
2023/09/25 08:13:26;;;;;;;6.80;5.13;;;;;;;18.72;62.19;100545.59;5037851;28;20051;-75
2023/09/25 08:15:51;;;;;;;11.70;4.72;;;;;;;19.01;61.47;100532.97;5037105;28;20036;-74
2023/09/25 08:18:16;;;;;;;5.00;4.00;;;;;;;19.28;60.50;100528.69;5020153;28;20048;-75
2023/09/25 08:20:42;;;;;;;5.50;4.53;;;;;;;19.40;59.82;100524.84;5027535;28;20055;-76
2023/09/25 08:23:09;;;;;;;5.80;4.85;;;;;;;19.37;59.50;100546.75;5061528;28;20048;-76
2023/09/25 08:25:34;;;;;;;7.07;4.18;;;;;;;19.28;59.39;100551.19;5063251;28;20052;-76
2023/09/25 08:27:59;;;;;;;7.40;4.28;;;;;;;19.11;59.67;100541.06;5008424;28;20075;-75
2023/09/25 08:30:25;;;;;;;8.07;4.55;;;;;;;18.97;60.40;100549.59;5020799;28;20053;-76
2023/09/25 08:32:50;;;;;;;6.70;4.70;;;;;;;18.85;60.84;100547.03;5020739;28;20051;-76
2023/09/25 08:35:15;;;;;;;5.82;4.78;;;;;;;18.80;60.61;100559.25;5026713;28;20040;-74
2023/09/25 08:37:42;;;;;;;7.82;4.70;;;;;;;18.83;60.90;100581.47;5039569;28;20046;-74
2023/09/25 08:40:09;;;;;;;7.65;4.90;;;;;;;18.95;60.23;100557.88;5057327;28;20044;-74
2023/09/25 08:42:35;;;;;;;7.22;4.32;;;;;;;19.08;59.71;100555.72;5055981;28;20052;-74
2023/09/25 08:45:03;;;;;;;7.40;4.60;;;;;;;19.19;59.53;100571.78;5039104;28;20055;-74
2023/09/25 08:47:34;;;;;;;7.38;5.20;;;;;;;19.21;59.45;100580.63;5056896;28;20044;-73
2023/09/25 08:50:00;;;;;;;7.97;5.35;;;;;;;19.17;59.73;100567.56;5056961;28;20051;-73
2023/09/25 08:52:26;;;;;;;9.05;5.70;;;;;;;19.07;59.88;100605.38;5021814;28;20420;-73
2023/09/25 08:54:52;;;;;;;13.27;5.85;;;;;;;18.95;59.80;100563.28;5039010;28;20048;-73
2023/09/25 08:57:18;;;;;;;12.38;5.45;;;;;;;18.86;59.98;100547.88;5054133;28;20040;-74
2023/09/25 08:59:46;;;;;;;8.43;4.55;;;;;;;18.74;60.27;100582.25;5055529;28;20059;-73
2023/09/25 09:02:12;;;;;;;11.55;5.63;;;;;;;18.70;60.67;100580.84;5022083;28;20039;-73
2023/09/25 09:04:37;;;;;;;10.25;5.75;;;;;;;18.72;61.24;100578.03;5056886;28;20040;-74
2023/09/25 09:07:08;;;;;;;10.30;6.05;;;;;;;18.83;61.64;100586.00;5038109;28;20043;-73
2023/09/25 09:09:34;;;;;;;9.30;5.40;;;;;;;18.96;61.46;100607.38;5039054;28;20090;-73
2023/09/25 09:11:59;;;;;;;7.32;5.75;;;;;;;19.10;60.80;100588.88;5038892;28;20036;-74
2023/09/25 09:14:38;;;;;;;7.70;5.00;;;;;;;19.34;60.49;100588.44;5038665;28;20048;-75
2023/09/25 09:17:04;;;;;;;9.43;5.63;;;;;;;19.46;59.54;100586.44;5038198;28;20040;-74
2023/09/25 09:19:35;;;;;;;6.75;4.70;;;;;;;19.67;59.35;100619.63;5038513;28;20055;-73
2023/09/25 09:22:05;;;;;;;6.28;4.50;;;;;;;19.81;58.58;100591.28;5056444;28;20048;-74
2023/09/25 09:24:37;;;;;;;8.60;4.63;;;;;;;19.88;58.15;100589.69;5056447;28;20062;-74
2023/09/25 09:27:07;;;;;;;9.15;4.50;;;;;;;19.83;58.13;100614.50;5022257;28;20040;-76
2023/09/25 09:29:37;;;;;;;6.60;5.30;;;;;;;19.83;58.01;100592.84;5022588;28;20056;-76
2023/09/25 09:32:03;;;;;;;6.32;4.38;;;;;;;19.74;58.11;100604.56;5044953;28;20040;-78
2023/09/25 09:34:29;;;;;;;9.63;5.03;;;;;;;19.66;57.94;100606.25;5042960;28;20426;-75
2023/09/25 09:36:54;;;;;;;5.72;4.38;;;;;;;19.58;58.02;100598.84;5037443;28;20036;-76
2023/09/25 09:39:27;;;;;;;10.18;5.78;;;;;;;19.53;58.68;100611.94;5034429;28;20075;-76
2023/09/25 09:41:54;;;;;;;8.77;5.15;;;;;;;19.47;59.22;100618.78;5018113;28;20044;-76
2023/09/25 09:44:19;;;;;;;9.25;5.18;;;;;;;19.39;59.52;100591.59;5036940;28;20044;-75
2023/09/25 09:46:46;;;;;;;7.75;5.00;;;;;;;19.28;59.70;100617.91;5018401;28;20044;-75
2023/09/25 09:49:15;;;;;;;5.78;4.72;;;;;;;19.16;60.34;100614.50;5024676;28;20047;-77
2023/09/25 09:51:43;;;;;;;7.50;4.55;;;;;;;19.05;60.38;100618.19;5021618;28;20040;-78
2023/09/25 09:54:17;;;;;;;6.18;4.55;;;;;;;18.97;60.57;100587.41;5056001;28;20054;-75
2023/09/25 09:56:42;;;;;;;7.53;5.10;;;;;;;18.92;60.51;100620.28;5020476;28;20411;-76
2023/09/25 09:59:07;;;;;;;7.63;5.57;;;;;;;18.86;61.33;100613.59;5004175;28;20052;-73
2023/09/25 10:01:34;;;;;;;7.45;5.65;;;;;;;18.82;61.56;100628.38;5053079;28;20486;-74
2023/09/25 10:04:02;;;;;;;9.45;4.75;;;;;;;18.81;61.56;100594.25;5027613;28;20059;-74
2023/09/25 10:06:29;;;;;;;7.13;4.95;;;;;;;18.83;61.55;100640.91;5055610;28;20040;-73
2023/09/25 10:09:02;;;;;;;7.80;5.40;;;;;;;19.02;61.05;100623.84;5038491;28;20052;-74
2023/09/25 10:11:29;;;;;;;6.65;4.90;;;;;;;19.15;60.51;100619.03;5050246;28;20041;-74
2023/09/25 10:13:55;;;;;;;6.40;4.80;;;;;;;19.32;60.01;100633.69;5004183;28;20041;-72
2023/09/25 10:16:20;;;;;;;6.82;5.38;;;;;;;19.48;59.16;100652.06;4983452;28;20055;-77
2023/09/25 10:18:52;;;;;;;8.32;5.13;;;;;;;19.62;58.90;100632.75;5004497;28;20396;-75
2023/09/25 10:21:17;;;;;;;5.93;4.80;;;;;;;19.65;58.65;100632.44;5046604;28;20040;-74
2023/09/25 10:23:48;;;;;;;7.40;5.00;;;;;;;19.74;58.85;100644.28;5016887;28;20053;-75
2023/09/25 10:26:20;;;;;;;7.75;4.80;;;;;;;19.83;59.00;100635.28;5046276;28;20048;-74
2023/09/25 10:28:58;;;;;;;8.70;5.30;;;;;;;20.06;58.62;100638.53;5016258;28;20059;-75
2023/09/25 10:31:29;;;;;;;8.02;4.80;;;;;;;20.14;57.68;100650.31;5044943;28;20056;-76
2023/09/25 10:33:57;;;;;;;8.95;5.63;;;;;;;20.33;57.51;100643.13;5024495;28;20051;-74
2023/09/25 10:36:35;;;;;;;13.63;5.80;;;;;;;20.55;57.02;100643.63;5016003;28;20171;-76
2023/09/25 10:39:01;;;;;;;6.22;4.72;;;;;;;20.48;56.32;100637.13;5044597;28;20514;-76
2023/09/25 10:41:26;;;;;;;7.13;4.45;;;;;;;20.46;56.04;100633.72;5016805;28;20051;-76
2023/09/25 10:43:52;;;;;;;6.72;4.45;;;;;;;20.43;56.02;100633.16;5049332;28;20050;-76
2023/09/25 10:46:18;;;;;;;4.88;4.25;;;;;;;20.41;55.90;100625.19;5053540;28;20036;-75
2023/09/25 10:48:43;;;;;;;6.75;4.50;;;;;;;20.39;55.85;100629.03;5034576;28;20055;-77
2023/09/25 10:51:08;;;;;;;6.68;5.32;;;;;;;20.33;55.75;100659.38;5052191;28;20086;-77
2023/09/25 10:53:33;;;;;;;8.52;4.57;;;;;;;20.26;56.27;100638.31;5049780;28;20044;-76
2023/09/25 10:55:59;;;;;;;6.28;4.63;;;;;;;20.14;56.46;100654.88;5016709;28;20065;-76
2023/09/25 10:58:25;;;;;;;8.40;5.28;;;;;;;20.06;56.41;100620.44;5055381;28;20047;-76
2023/09/25 11:00:50;;;;;;;7.20;5.47;;;;;;;20.00;56.61;100596.63;5020130;28;20048;-77
2023/09/25 11:03:16;;;;;;;6.03;4.95;;;;;;;19.91;56.76;100630.00;5037282;28;20058;-77
2023/09/25 11:05:41;;;;;;;7.55;5.82;;;;;;;19.83;57.02;100636.16;5033742;28;20521;-76
2023/09/25 11:08:14;;;;;;;9.82;5.00;;;;;;;19.75;57.20;100627.88;5046213;28;20043;-76
2023/09/25 11:10:40;;;;;;;8.48;5.32;;;;;;;19.70;57.57;100646.41;5042027;28;20048;-76
2023/09/25 11:13:05;;;;;;;7.90;5.00;;;;;;;19.67;57.76;100645.84;5014716;28;20047;-76
2023/09/25 11:15:38;;;;;;;7.53;4.38;;;;;;;19.69;58.18;100657.38;5033282;28;20507;-74
2023/09/25 11:18:07;;;;;;;7.53;4.82;;;;;;;19.65;58.40;100647.81;5041679;28;20048;-74